sensor_id;sensor_type;location;lat;lon;timestamp;P1;durP1;ratioP1;P2;durP2;ratioP2
15595;SDS011;7898;48.658;9.068;2023-04-25T00:01:54;3.27;;;2.97;;
15595;SDS011;7898;48.658;9.068;2023-04-25T00:04:21;3.70;;;3.07;;
15595;SDS011;7898;48.658;9.068;2023-04-25T00:06:50;2.83;;;2.57;;
15595;SDS011;7898;48.658;9.068;2023-04-25T00:09:17;3.13;;;2.83;;
15595;SDS011;7898;48.658;9.068;2023-04-25T00:11:44;4.20;;;2.80;;
15595;SDS011;7898;48.658;9.068;2023-04-25T00:14:11;4.50;;;2.90;;
15595;SDS011;7898;48.658;9.068;2023-04-25T00:16:37;3.60;;;2.90;;
15595;SDS011;7898;48.658;9.068;2023-04-25T00:19:06;3.70;;;3.30;;
15595;SDS011;7898;48.658;9.068;2023-04-25T00:21:33;3.53;;;3.03;;
15595;SDS011;7898;48.658;9.068;2023-04-25T00:24:02;5.73;;;3.67;;
15595;SDS011;7898;48.658;9.068;2023-04-25T00:26:29;3.93;;;2.97;;
15595;SDS011;7898;48.658;9.068;2023-04-25T00:28:56;4.27;;;3.50;;
15595;SDS011;7898;48.658;9.068;2023-04-25T00:31:22;4.63;;;3.00;;
15595;SDS011;7898;48.658;9.068;2023-04-25T00:33:49;5.67;;;3.07;;
15595;SDS011;7898;48.658;9.068;2023-04-25T00:36:16;3.37;;;2.53;;
15595;SDS011;7898;48.658;9.068;2023-04-25T00:38:43;5.00;;;3.03;;
15595;SDS011;7898;48.658;9.068;2023-04-25T00:41:11;3.63;;;2.73;;
15595;SDS011;7898;48.658;9.068;2023-04-25T00:43:38;3.77;;;3.40;;
15595;SDS011;7898;48.658;9.068;2023-04-25T00:46:06;3.40;;;2.70;;
15595;SDS011;7898;48.658;9.068;2023-04-25T00:48:33;3.73;;;3.00;;
15595;SDS011;7898;48.658;9.068;2023-04-25T00:51:00;6.53;;;3.20;;
15595;SDS011;7898;48.658;9.068;2023-04-25T00:53:27;4.43;;;3.13;;
15595;SDS011;7898;48.658;9.068;2023-04-25T00:55:54;3.73;;;3.07;;
15595;SDS011;7898;48.658;9.068;2023-04-25T00:58:23;4.60;;;3.00;;
15595;SDS011;7898;48.658;9.068;2023-04-25T01:00:50;3.70;;;2.90;;
15595;SDS011;7898;48.658;9.068;2023-04-25T01:03:18;4.07;;;2.97;;
15595;SDS011;7898;48.658;9.068;2023-04-25T01:05:45;4.30;;;3.40;;
15595;SDS011;7898;48.658;9.068;2023-04-25T01:08:13;5.23;;;2.93;;
15595;SDS011;7898;48.658;9.068;2023-04-25T01:10:40;5.73;;;3.43;;
15595;SDS011;7898;48.658;9.068;2023-04-25T01:13:07;6.30;;;3.80;;
15595;SDS011;7898;48.658;9.068;2023-04-25T01:15:35;4.97;;;4.20;;
15595;SDS011;7898;48.658;9.068;2023-04-25T01:18:02;5.80;;;3.77;;
15595;SDS011;7898;48.658;9.068;2023-04-25T01:20:30;5.43;;;4.00;;
15595;SDS011;7898;48.658;9.068;2023-04-25T01:23:00;7.23;;;5.00;;
15595;SDS011;7898;48.658;9.068;2023-04-25T01:25:28;4.97;;;4.13;;
15595;SDS011;7898;48.658;9.068;2023-04-25T01:27:55;5.57;;;3.20;;
15595;SDS011;7898;48.658;9.068;2023-04-25T01:30:23;3.97;;;2.93;;
15595;SDS011;7898;48.658;9.068;2023-04-25T01:32:51;4.07;;;3.10;;
15595;SDS011;7898;48.658;9.068;2023-04-25T01:35:18;4.80;;;2.97;;
15595;SDS011;7898;48.658;9.068;2023-04-25T01:37:45;3.63;;;3.10;;
15595;SDS011;7898;48.658;9.068;2023-04-25T01:40:13;4.27;;;2.97;;
15595;SDS011;7898;48.658;9.068;2023-04-25T01:42:41;3.70;;;3.00;;
15595;SDS011;7898;48.658;9.068;2023-04-25T01:45:10;5.10;;;3.27;;
15595;SDS011;7898;48.658;9.068;2023-04-25T01:47:37;5.93;;;3.50;;
15595;SDS011;7898;48.658;9.068;2023-04-25T01:50:07;5.50;;;3.50;;
15595;SDS011;7898;48.658;9.068;2023-04-25T01:52:34;3.90;;;3.00;;
15595;SDS011;7898;48.658;9.068;2023-04-25T01:55:02;4.13;;;3.63;;
15595;SDS011;7898;48.658;9.068;2023-04-25T01:57:30;4.00;;;3.43;;
15595;SDS011;7898;48.658;9.068;2023-04-25T01:59:58;4.67;;;3.33;;
15595;SDS011;7898;48.658;9.068;2023-04-25T02:02:26;3.50;;;3.07;;
15595;SDS011;7898;48.658;9.068;2023-04-25T02:04:53;3.67;;;2.87;;
15595;SDS011;7898;48.658;9.068;2023-04-25T02:07:21;4.10;;;3.33;;
15595;SDS011;7898;48.658;9.068;2023-04-25T02:09:48;5.03;;;3.40;;
15595;SDS011;7898;48.658;9.068;2023-04-25T02:12:15;5.13;;;3.57;;
15595;SDS011;7898;48.658;9.068;2023-04-25T02:14:43;6.80;;;3.60;;
15595;SDS011;7898;48.658;9.068;2023-04-25T02:17:10;6.40;;;3.90;;
15595;SDS011;7898;48.658;9.068;2023-04-25T02:19:37;4.73;;;3.73;;
15595;SDS011;7898;48.658;9.068;2023-04-25T02:22:04;5.67;;;3.57;;
15595;SDS011;7898;48.658;9.068;2023-04-25T02:24:31;6.60;;;3.70;;
15595;SDS011;7898;48.658;9.068;2023-04-25T02:26:58;5.00;;;3.80;;
15595;SDS011;7898;48.658;9.068;2023-04-25T02:29:25;5.93;;;4.73;;
15595;SDS011;7898;48.658;9.068;2023-04-25T02:31:54;4.33;;;3.27;;
15595;SDS011;7898;48.658;9.068;2023-04-25T02:34:21;4.50;;;3.33;;
15595;SDS011;7898;48.658;9.068;2023-04-25T02:36:48;4.90;;;3.53;;
15595;SDS011;7898;48.658;9.068;2023-04-25T02:39:15;5.90;;;2.93;;
15595;SDS011;7898;48.658;9.068;2023-04-25T02:41:42;3.27;;;2.97;;
15595;SDS011;7898;48.658;9.068;2023-04-25T02:44:09;4.87;;;2.80;;
15595;SDS011;7898;48.658;9.068;2023-04-25T02:46:36;3.57;;;2.87;;
15595;SDS011;7898;48.658;9.068;2023-04-25T02:49:04;5.97;;;3.00;;
15595;SDS011;7898;48.658;9.068;2023-04-25T02:51:31;4.13;;;3.00;;
15595;SDS011;7898;48.658;9.068;2023-04-25T02:53:58;6.77;;;3.10;;
15595;SDS011;7898;48.658;9.068;2023-04-25T02:56:25;3.10;;;2.80;;
15595;SDS011;7898;48.658;9.068;2023-04-25T02:58:52;4.17;;;2.93;;
15595;SDS011;7898;48.658;9.068;2023-04-25T03:01:19;4.23;;;3.20;;
15595;SDS011;7898;48.658;9.068;2023-04-25T03:03:46;3.80;;;3.40;;
15595;SDS011;7898;48.658;9.068;2023-04-25T03:06:14;4.67;;;3.47;;
15595;SDS011;7898;48.658;9.068;2023-04-25T03:08:41;3.53;;;2.77;;
15595;SDS011;7898;48.658;9.068;2023-04-25T03:11:08;3.77;;;3.10;;
15595;SDS011;7898;48.658;9.068;2023-04-25T03:13:35;3.60;;;2.80;;
15595;SDS011;7898;48.658;9.068;2023-04-25T03:16:02;6.57;;;3.63;;
15595;SDS011;7898;48.658;9.068;2023-04-25T03:18:29;3.63;;;2.93;;
15595;SDS011;7898;48.658;9.068;2023-04-25T03:20:56;4.27;;;3.47;;
15595;SDS011;7898;48.658;9.068;2023-04-25T03:23:25;4.60;;;2.97;;
15595;SDS011;7898;48.658;9.068;2023-04-25T03:25:52;5.87;;;3.47;;
15595;SDS011;7898;48.658;9.068;2023-04-25T03:28:19;4.53;;;3.27;;
15595;SDS011;7898;48.658;9.068;2023-04-25T03:30:46;5.90;;;3.27;;
15595;SDS011;7898;48.658;9.068;2023-04-25T03:33:12;4.47;;;3.10;;
15595;SDS011;7898;48.658;9.068;2023-04-25T03:35:39;4.53;;;3.13;;
15595;SDS011;7898;48.658;9.068;2023-04-25T03:38:07;5.23;;;3.50;;
15595;SDS011;7898;48.658;9.068;2023-04-25T03:40:35;4.30;;;3.03;;
15595;SDS011;7898;48.658;9.068;2023-04-25T03:43:02;5.60;;;3.80;;
15595;SDS011;7898;48.658;9.068;2023-04-25T03:45:29;6.63;;;3.50;;
15595;SDS011;7898;48.658;9.068;2023-04-25T03:47:56;6.67;;;3.60;;
15595;SDS011;7898;48.658;9.068;2023-04-25T03:50:23;6.60;;;3.27;;
15595;SDS011;7898;48.658;9.068;2023-04-25T03:52:50;6.40;;;3.90;;
15595;SDS011;7898;48.658;9.068;2023-04-25T03:55:17;7.37;;;3.90;;
15595;SDS011;7898;48.658;9.068;2023-04-25T03:57:46;4.10;;;3.47;;
15595;SDS011;7898;48.658;9.068;2023-04-25T04:00:13;5.90;;;4.40;;
15595;SDS011;7898;48.658;9.068;2023-04-25T04:02:40;5.87;;;4.27;;
15595;SDS011;7898;48.658;9.068;2023-04-25T04:05:07;5.23;;;4.00;;
15595;SDS011;7898;48.658;9.068;2023-04-25T04:07:35;5.77;;;3.83;;
15595;SDS011;7898;48.658;9.068;2023-04-25T04:10:05;5.73;;;4.10;;
15595;SDS011;7898;48.658;9.068;2023-04-25T04:12:32;4.33;;;3.40;;
15595;SDS011;7898;48.658;9.068;2023-04-25T04:15:00;5.37;;;3.70;;
15595;SDS011;7898;48.658;9.068;2023-04-25T04:17:28;5.23;;;3.77;;
15595;SDS011;7898;48.658;9.068;2023-04-25T04:19:55;7.23;;;4.60;;
15595;SDS011;7898;48.658;9.068;2023-04-25T04:22:22;6.90;;;4.10;;
15595;SDS011;7898;48.658;9.068;2023-04-25T04:24:49;6.20;;;3.70;;
15595;SDS011;7898;48.658;9.068;2023-04-25T04:27:17;13.60;;;7.30;;
15595;SDS011;7898;48.658;9.068;2023-04-25T04:29:44;10.10;;;6.47;;
15595;SDS011;7898;48.658;9.068;2023-04-25T04:32:12;7.97;;;5.97;;
15595;SDS011;7898;48.658;9.068;2023-04-25T04:34:40;10.03;;;4.90;;
15595;SDS011;7898;48.658;9.068;2023-04-25T04:37:07;5.07;;;4.13;;
15595;SDS011;7898;48.658;9.068;2023-04-25T04:39:35;5.17;;;4.03;;
15595;SDS011;7898;48.658;9.068;2023-04-25T04:42:02;5.97;;;4.57;;
15595;SDS011;7898;48.658;9.068;2023-04-25T04:44:30;5.67;;;4.60;;
15595;SDS011;7898;48.658;9.068;2023-04-25T04:46:59;5.37;;;4.10;;
15595;SDS011;7898;48.658;9.068;2023-04-25T04:49:28;6.77;;;4.37;;
15595;SDS011;7898;48.658;9.068;2023-04-25T04:51:55;9.70;;;4.77;;
15595;SDS011;7898;48.658;9.068;2023-04-25T04:54:22;5.87;;;4.40;;
15595;SDS011;7898;48.658;9.068;2023-04-25T04:56:48;6.87;;;4.50;;
15595;SDS011;7898;48.658;9.068;2023-04-25T04:59:17;8.17;;;4.67;;
15595;SDS011;7898;48.658;9.068;2023-04-25T05:01:44;6.60;;;4.70;;
15595;SDS011;7898;48.658;9.068;2023-04-25T05:04:11;10.70;;;6.33;;
15595;SDS011;7898;48.658;9.068;2023-04-25T05:06:40;12.10;;;6.80;;
15595;SDS011;7898;48.658;9.068;2023-04-25T05:09:07;8.83;;;6.43;;
15595;SDS011;7898;48.658;9.068;2023-04-25T05:11:33;10.90;;;6.33;;
15595;SDS011;7898;48.658;9.068;2023-04-25T05:14:00;7.73;;;5.80;;
15595;SDS011;7898;48.658;9.068;2023-04-25T05:16:27;8.47;;;4.87;;
15595;SDS011;7898;48.658;9.068;2023-04-25T05:18:54;6.13;;;4.40;;
15595;SDS011;7898;48.658;9.068;2023-04-25T05:21:21;4.70;;;4.13;;
15595;SDS011;7898;48.658;9.068;2023-04-25T05:23:49;6.67;;;4.67;;
15595;SDS011;7898;48.658;9.068;2023-04-25T05:26:16;6.33;;;4.30;;
15595;SDS011;7898;48.658;9.068;2023-04-25T05:28:43;11.83;;;4.80;;
15595;SDS011;7898;48.658;9.068;2023-04-25T05:31:10;8.90;;;5.13;;
15595;SDS011;7898;48.658;9.068;2023-04-25T05:33:37;8.07;;;4.43;;
15595;SDS011;7898;48.658;9.068;2023-04-25T05:36:04;6.03;;;4.80;;
15595;SDS011;7898;48.658;9.068;2023-04-25T05:38:32;6.30;;;4.30;;
15595;SDS011;7898;48.658;9.068;2023-04-25T05:41:00;8.10;;;4.87;;
15595;SDS011;7898;48.658;9.068;2023-04-25T05:43:27;5.47;;;3.83;;
15595;SDS011;7898;48.658;9.068;2023-04-25T05:45:54;9.17;;;4.90;;
15595;SDS011;7898;48.658;9.068;2023-04-25T05:48:21;9.57;;;4.90;;
15595;SDS011;7898;48.658;9.068;2023-04-25T05:50:48;6.27;;;4.53;;
15595;SDS011;7898;48.658;9.068;2023-04-25T05:53:16;8.20;;;4.70;;
15595;SDS011;7898;48.658;9.068;2023-04-25T05:55:43;6.10;;;4.00;;
15595;SDS011;7898;48.658;9.068;2023-04-25T05:58:11;6.80;;;4.37;;
15595;SDS011;7898;48.658;9.068;2023-04-25T06:00:38;6.20;;;3.93;;
15595;SDS011;7898;48.658;9.068;2023-04-25T06:03:06;6.27;;;4.37;;
15595;SDS011;7898;48.658;9.068;2023-04-25T06:05:34;6.20;;;4.20;;
15595;SDS011;7898;48.658;9.068;2023-04-25T06:08:01;8.67;;;4.60;;
15595;SDS011;7898;48.658;9.068;2023-04-25T06:10:28;6.97;;;5.00;;
15595;SDS011;7898;48.658;9.068;2023-04-25T06:12:55;5.83;;;3.60;;
15595;SDS011;7898;48.658;9.068;2023-04-25T06:15:23;5.83;;;4.13;;
15595;SDS011;7898;48.658;9.068;2023-04-25T06:17:50;4.67;;;3.73;;
15595;SDS011;7898;48.658;9.068;2023-04-25T06:20:17;8.17;;;4.50;;
15595;SDS011;7898;48.658;9.068;2023-04-25T06:22:47;4.77;;;3.63;;
15595;SDS011;7898;48.658;9.068;2023-04-25T06:25:14;7.43;;;4.20;;
15595;SDS011;7898;48.658;9.068;2023-04-25T06:27:41;6.30;;;4.27;;
15595;SDS011;7898;48.658;9.068;2023-04-25T06:30:09;6.33;;;3.93;;
15595;SDS011;7898;48.658;9.068;2023-04-25T06:32:38;8.43;;;3.93;;
15595;SDS011;7898;48.658;9.068;2023-04-25T06:35:06;6.20;;;3.80;;
15595;SDS011;7898;48.658;9.068;2023-04-25T06:37:33;8.83;;;3.63;;
15595;SDS011;7898;48.658;9.068;2023-04-25T06:40:00;6.17;;;3.93;;
15595;SDS011;7898;48.658;9.068;2023-04-25T06:42:27;4.40;;;3.60;;
15595;SDS011;7898;48.658;9.068;2023-04-25T06:44:54;6.77;;;3.83;;
15595;SDS011;7898;48.658;9.068;2023-04-25T06:47:21;7.07;;;3.90;;
15595;SDS011;7898;48.658;9.068;2023-04-25T06:49:49;6.37;;;3.87;;
15595;SDS011;7898;48.658;9.068;2023-04-25T06:52:16;4.83;;;4.17;;
15595;SDS011;7898;48.658;9.068;2023-04-25T06:54:43;6.80;;;4.30;;
15595;SDS011;7898;48.658;9.068;2023-04-25T06:57:10;4.70;;;4.20;;
15595;SDS011;7898;48.658;9.068;2023-04-25T06:59:37;8.03;;;4.10;;
15595;SDS011;7898;48.658;9.068;2023-04-25T07:02:04;6.23;;;4.10;;
15595;SDS011;7898;48.658;9.068;2023-04-25T07:04:31;5.57;;;4.23;;
15595;SDS011;7898;48.658;9.068;2023-04-25T07:06:59;6.30;;;4.63;;
15595;SDS011;7898;48.658;9.068;2023-04-25T07:09:27;5.13;;;3.93;;
15595;SDS011;7898;48.658;9.068;2023-04-25T07:11:54;6.97;;;4.40;;
15595;SDS011;7898;48.658;9.068;2023-04-25T07:14:22;8.37;;;6.67;;
15595;SDS011;7898;48.658;9.068;2023-04-25T07:16:49;5.93;;;4.67;;
15595;SDS011;7898;48.658;9.068;2023-04-25T07:19:15;4.97;;;4.23;;
15595;SDS011;7898;48.658;9.068;2023-04-25T07:21:42;5.97;;;4.50;;
15595;SDS011;7898;48.658;9.068;2023-04-25T07:24:10;6.37;;;4.50;;
15595;SDS011;7898;48.658;9.068;2023-04-25T07:26:37;5.27;;;4.50;;
15595;SDS011;7898;48.658;9.068;2023-04-25T07:29:04;6.03;;;4.67;;
15595;SDS011;7898;48.658;9.068;2023-04-25T07:31:31;6.47;;;4.37;;
15595;SDS011;7898;48.658;9.068;2023-04-25T07:33:58;6.20;;;4.80;;
15595;SDS011;7898;48.658;9.068;2023-04-25T07:36:25;5.67;;;4.23;;
15595;SDS011;7898;48.658;9.068;2023-04-25T07:38:52;5.40;;;4.13;;
15595;SDS011;7898;48.658;9.068;2023-04-25T07:41:20;6.83;;;4.80;;
15595;SDS011;7898;48.658;9.068;2023-04-25T07:43:48;5.07;;;4.47;;
15595;SDS011;7898;48.658;9.068;2023-04-25T07:46:15;7.50;;;5.50;;
15595;SDS011;7898;48.658;9.068;2023-04-25T07:48:41;7.53;;;5.10;;
15595;SDS011;7898;48.658;9.068;2023-04-25T07:51:08;7.33;;;5.10;;
15595;SDS011;7898;48.658;9.068;2023-04-25T07:53:35;6.27;;;4.90;;
15595;SDS011;7898;48.658;9.068;2023-04-25T07:56:03;9.87;;;5.53;;
15595;SDS011;7898;48.658;9.068;2023-04-25T07:58:32;6.90;;;4.80;;
15595;SDS011;7898;48.658;9.068;2023-04-25T08:00:58;5.10;;;3.90;;
15595;SDS011;7898;48.658;9.068;2023-04-25T08:03:25;5.53;;;3.77;;
15595;SDS011;7898;48.658;9.068;2023-04-25T08:05:52;6.63;;;4.57;;
15595;SDS011;7898;48.658;9.068;2023-04-25T08:08:19;4.90;;;4.40;;
15595;SDS011;7898;48.658;9.068;2023-04-25T08:10:46;6.37;;;4.47;;
15595;SDS011;7898;48.658;9.068;2023-04-25T08:13:13;6.50;;;4.37;;
15595;SDS011;7898;48.658;9.068;2023-04-25T08:15:41;6.27;;;4.97;;
15595;SDS011;7898;48.658;9.068;2023-04-25T08:18:08;8.13;;;4.53;;
15595;SDS011;7898;48.658;9.068;2023-04-25T08:20:35;6.70;;;4.60;;
15595;SDS011;7898;48.658;9.068;2023-04-25T08:23:02;7.67;;;4.80;;
15595;SDS011;7898;48.658;9.068;2023-04-25T08:25:29;5.20;;;4.63;;
15595;SDS011;7898;48.658;9.068;2023-04-25T08:27:56;7.63;;;4.83;;
15595;SDS011;7898;48.658;9.068;2023-04-25T08:30:24;6.67;;;4.83;;
15595;SDS011;7898;48.658;9.068;2023-04-25T08:32:53;7.80;;;5.30;;
15595;SDS011;7898;48.658;9.068;2023-04-25T08:35:20;5.40;;;4.70;;
15595;SDS011;7898;48.658;9.068;2023-04-25T08:37:47;7.10;;;5.60;;
15595;SDS011;7898;48.658;9.068;2023-04-25T08:40:14;5.30;;;4.80;;
15595;SDS011;7898;48.658;9.068;2023-04-25T08:42:42;4.97;;;4.23;;
15595;SDS011;7898;48.658;9.068;2023-04-25T08:45:09;6.53;;;4.53;;
15595;SDS011;7898;48.658;9.068;2023-04-25T08:47:37;4.97;;;4.47;;
15595;SDS011;7898;48.658;9.068;2023-04-25T08:50:08;5.63;;;4.20;;
15595;SDS011;7898;48.658;9.068;2023-04-25T08:52:36;6.03;;;4.03;;
15595;SDS011;7898;48.658;9.068;2023-04-25T08:55:06;5.70;;;4.77;;
15595;SDS011;7898;48.658;9.068;2023-04-25T08:57:35;6.07;;;4.00;;
15595;SDS011;7898;48.658;9.068;2023-04-25T09:00:04;6.70;;;4.17;;
15595;SDS011;7898;48.658;9.068;2023-04-25T09:02:33;6.03;;;5.07;;
15595;SDS011;7898;48.658;9.068;2023-04-25T09:05:00;5.63;;;4.43;;
15595;SDS011;7898;48.658;9.068;2023-04-25T09:07:30;6.43;;;4.57;;
15595;SDS011;7898;48.658;9.068;2023-04-25T09:09:57;5.50;;;4.93;;
15595;SDS011;7898;48.658;9.068;2023-04-25T09:12:27;6.53;;;4.83;;
15595;SDS011;7898;48.658;9.068;2023-04-25T09:15:03;5.57;;;4.10;;
15595;SDS011;7898;48.658;9.068;2023-04-25T09:17:31;8.33;;;4.70;;
15595;SDS011;7898;48.658;9.068;2023-04-25T09:20:05;4.87;;;4.37;;
15595;SDS011;7898;48.658;9.068;2023-04-25T09:22:35;5.70;;;4.23;;
15595;SDS011;7898;48.658;9.068;2023-04-25T09:25:03;8.63;;;4.70;;
15595;SDS011;7898;48.658;9.068;2023-04-25T09:27:34;5.03;;;3.93;;
15595;SDS011;7898;48.658;9.068;2023-04-25T09:30:01;6.30;;;4.33;;
15595;SDS011;7898;48.658;9.068;2023-04-25T09:32:28;5.73;;;4.13;;
15595;SDS011;7898;48.658;9.068;2023-04-25T09:34:56;3.93;;;3.40;;
15595;SDS011;7898;48.658;9.068;2023-04-25T09:37:24;3.90;;;3.13;;
15595;SDS011;7898;48.658;9.068;2023-04-25T09:39:54;5.37;;;3.73;;
15595;SDS011;7898;48.658;9.068;2023-04-25T09:42:23;3.60;;;3.30;;
15595;SDS011;7898;48.658;9.068;2023-04-25T09:44:53;3.30;;;2.97;;
15595;SDS011;7898;48.658;9.068;2023-04-25T09:47:20;4.40;;;3.10;;
15595;SDS011;7898;48.658;9.068;2023-04-25T09:49:49;4.73;;;3.20;;
15595;SDS011;7898;48.658;9.068;2023-04-25T09:52:18;3.17;;;2.67;;
15595;SDS011;7898;48.658;9.068;2023-04-25T09:54:47;2.67;;;2.30;;
15595;SDS011;7898;48.658;9.068;2023-04-25T09:57:17;2.90;;;2.20;;
15595;SDS011;7898;48.658;9.068;2023-04-25T09:59:45;4.60;;;1.90;;
15595;SDS011;7898;48.658;9.068;2023-04-25T10:02:13;2.13;;;1.63;;
15595;SDS011;7898;48.658;9.068;2023-04-25T10:04:41;3.70;;;1.30;;
15595;SDS011;7898;48.658;9.068;2023-04-25T10:07:10;1.67;;;1.10;;
15595;SDS011;7898;48.658;9.068;2023-04-25T10:09:38;1.10;;;1.00;;
15595;SDS011;7898;48.658;9.068;2023-04-25T10:12:06;1.43;;;1.03;;
15595;SDS011;7898;48.658;9.068;2023-04-25T10:14:35;1.53;;;1.17;;
15595;SDS011;7898;48.658;9.068;2023-04-25T10:17:02;0.70;;;0.70;;
15595;SDS011;7898;48.658;9.068;2023-04-25T10:19:29;1.20;;;0.70;;
15595;SDS011;7898;48.658;9.068;2023-04-25T10:22:00;0.60;;;0.60;;
15595;SDS011;7898;48.658;9.068;2023-04-25T10:24:34;1.23;;;0.90;;
15595;SDS011;7898;48.658;9.068;2023-04-25T10:27:02;1.70;;;0.90;;
15595;SDS011;7898;48.658;9.068;2023-04-25T10:29:30;2.10;;;1.30;;
15595;SDS011;7898;48.658;9.068;2023-04-25T10:31:58;3.00;;;1.53;;
15595;SDS011;7898;48.658;9.068;2023-04-25T10:34:37;1.83;;;1.20;;
15595;SDS011;7898;48.658;9.068;2023-04-25T10:37:05;1.20;;;1.10;;
15595;SDS011;7898;48.658;9.068;2023-04-25T10:39:35;1.30;;;1.07;;
15595;SDS011;7898;48.658;9.068;2023-04-25T10:42:04;1.20;;;0.90;;
15595;SDS011;7898;48.658;9.068;2023-04-25T10:44:32;1.30;;;1.00;;
15595;SDS011;7898;48.658;9.068;2023-04-25T10:47:01;1.37;;;1.20;;
15595;SDS011;7898;48.658;9.068;2023-04-25T10:49:31;2.00;;;0.90;;
15595;SDS011;7898;48.658;9.068;2023-04-25T10:52:12;1.43;;;1.30;;
15595;SDS011;7898;48.658;9.068;2023-04-25T10:54:41;2.47;;;1.73;;
15595;SDS011;7898;48.658;9.068;2023-04-25T10:59:52;1.60;;;0.80;;
15595;SDS011;7898;48.658;9.068;2023-04-25T11:02:21;1.60;;;0.60;;
15595;SDS011;7898;48.658;9.068;2023-04-25T11:04:52;0.83;;;0.63;;
15595;SDS011;7898;48.658;9.068;2023-04-25T11:07:26;1.10;;;0.80;;
15595;SDS011;7898;48.658;9.068;2023-04-25T11:10:02;0.67;;;0.60;;
15595;SDS011;7898;48.658;9.068;2023-04-25T11:12:30;1.40;;;0.83;;
15595;SDS011;7898;48.658;9.068;2023-04-25T11:15:01;3.00;;;0.83;;
15595;SDS011;7898;48.658;9.068;2023-04-25T11:17:30;2.30;;;0.70;;
15595;SDS011;7898;48.658;9.068;2023-04-25T11:19:58;2.40;;;1.10;;
15595;SDS011;7898;48.658;9.068;2023-04-25T11:22:26;1.77;;;1.03;;
15595;SDS011;7898;48.658;9.068;2023-04-25T11:24:54;2.87;;;0.80;;
15595;SDS011;7898;48.658;9.068;2023-04-25T11:27:21;3.60;;;2.07;;
15595;SDS011;7898;48.658;9.068;2023-04-25T11:29:49;1.70;;;0.80;;
15595;SDS011;7898;48.658;9.068;2023-04-25T11:32:17;0.83;;;0.60;;
15595;SDS011;7898;48.658;9.068;2023-04-25T11:34:45;28.73;;;13.03;;
15595;SDS011;7898;48.658;9.068;2023-04-25T11:37:13;15.60;;;8.80;;
15595;SDS011;7898;48.658;9.068;2023-04-25T11:39:43;5.57;;;3.00;;
15595;SDS011;7898;48.658;9.068;2023-04-25T11:42:12;2.10;;;1.30;;
15595;SDS011;7898;48.658;9.068;2023-04-25T11:44:39;1.90;;;1.30;;
15595;SDS011;7898;48.658;9.068;2023-04-25T11:47:06;1.30;;;1.10;;
15595;SDS011;7898;48.658;9.068;2023-04-25T11:49:33;1.30;;;1.20;;
15595;SDS011;7898;48.658;9.068;2023-04-25T11:52:02;3.00;;;1.57;;
15595;SDS011;7898;48.658;9.068;2023-04-25T11:54:34;1.97;;;1.40;;
15595;SDS011;7898;48.658;9.068;2023-04-25T11:57:02;1.40;;;1.30;;
15595;SDS011;7898;48.658;9.068;2023-04-25T11:59:29;2.00;;;1.53;;
15595;SDS011;7898;48.658;9.068;2023-04-25T12:01:56;1.97;;;1.63;;
15595;SDS011;7898;48.658;9.068;2023-04-25T12:04:24;1.60;;;1.40;;
15595;SDS011;7898;48.658;9.068;2023-04-25T12:06:52;2.00;;;1.70;;
15595;SDS011;7898;48.658;9.068;2023-04-25T12:09:28;1.87;;;1.63;;
15595;SDS011;7898;48.658;9.068;2023-04-25T12:11:57;1.83;;;1.70;;
15595;SDS011;7898;48.658;9.068;2023-04-25T12:14:27;1.50;;;1.40;;
15595;SDS011;7898;48.658;9.068;2023-04-25T12:16:56;1.70;;;1.57;;
15595;SDS011;7898;48.658;9.068;2023-04-25T12:19:25;1.93;;;1.63;;
15595;SDS011;7898;48.658;9.068;2023-04-25T12:21:52;2.40;;;1.80;;
15595;SDS011;7898;48.658;9.068;2023-04-25T12:24:22;1.97;;;1.77;;
15595;SDS011;7898;48.658;9.068;2023-04-25T12:26:51;2.23;;;1.87;;
15595;SDS011;7898;48.658;9.068;2023-04-25T12:29:20;1.63;;;1.53;;
15595;SDS011;7898;48.658;9.068;2023-04-25T12:31:48;1.80;;;1.50;;
15595;SDS011;7898;48.658;9.068;2023-04-25T12:34:16;4.57;;;2.47;;
15595;SDS011;7898;48.658;9.068;2023-04-25T12:36:43;3.17;;;2.63;;
15595;SDS011;7898;48.658;9.068;2023-04-25T12:39:14;4.30;;;3.23;;
15595;SDS011;7898;48.658;9.068;2023-04-25T12:41:43;4.37;;;3.10;;
15595;SDS011;7898;48.658;9.068;2023-04-25T12:44:10;3.73;;;3.07;;
15595;SDS011;7898;48.658;9.068;2023-04-25T12:46:37;4.60;;;3.20;;
15595;SDS011;7898;48.658;9.068;2023-04-25T12:49:05;5.07;;;3.33;;
15595;SDS011;7898;48.658;9.068;2023-04-25T12:51:33;3.70;;;3.17;;
15595;SDS011;7898;48.658;9.068;2023-04-25T12:54:00;3.33;;;3.03;;
15595;SDS011;7898;48.658;9.068;2023-04-25T12:56:27;3.83;;;3.43;;
15595;SDS011;7898;48.658;9.068;2023-04-25T12:58:56;4.10;;;3.50;;
15595;SDS011;7898;48.658;9.068;2023-04-25T13:01:23;5.03;;;3.57;;
15595;SDS011;7898;48.658;9.068;2023-04-25T13:03:50;4.77;;;3.87;;
15595;SDS011;7898;48.658;9.068;2023-04-25T13:06:18;5.40;;;4.50;;
15595;SDS011;7898;48.658;9.068;2023-04-25T13:08:45;4.70;;;4.20;;
15595;SDS011;7898;48.658;9.068;2023-04-25T13:11:12;6.03;;;4.27;;
15595;SDS011;7898;48.658;9.068;2023-04-25T13:13:40;5.53;;;4.57;;
15595;SDS011;7898;48.658;9.068;2023-04-25T13:16:09;4.40;;;3.93;;
15595;SDS011;7898;48.658;9.068;2023-04-25T13:18:37;5.93;;;4.90;;
15595;SDS011;7898;48.658;9.068;2023-04-25T13:21:04;7.93;;;5.27;;
15595;SDS011;7898;48.658;9.068;2023-04-25T13:23:30;5.07;;;4.40;;
15595;SDS011;7898;48.658;9.068;2023-04-25T13:25:58;6.50;;;4.90;;
15595;SDS011;7898;48.658;9.068;2023-04-25T13:28:26;5.70;;;5.10;;
15595;SDS011;7898;48.658;9.068;2023-04-25T13:30:53;5.50;;;4.83;;
15595;SDS011;7898;48.658;9.068;2023-04-25T13:33:21;6.17;;;4.50;;
15595;SDS011;7898;48.658;9.068;2023-04-25T13:35:48;5.70;;;4.43;;
15595;SDS011;7898;48.658;9.068;2023-04-25T13:38:19;6.20;;;4.17;;
15595;SDS011;7898;48.658;9.068;2023-04-25T13:40:47;8.03;;;4.73;;
15595;SDS011;7898;48.658;9.068;2023-04-25T13:43:14;6.67;;;5.17;;
15595;SDS011;7898;48.658;9.068;2023-04-25T13:45:41;6.67;;;5.13;;
15595;SDS011;7898;48.658;9.068;2023-04-25T13:48:08;7.07;;;5.63;;
15595;SDS011;7898;48.658;9.068;2023-04-25T13:50:36;8.73;;;6.33;;
15595;SDS011;7898;48.658;9.068;2023-04-25T13:53:03;8.97;;;5.87;;
15595;SDS011;7898;48.658;9.068;2023-04-25T13:55:30;7.22;;;6.18;;
15595;SDS011;7898;48.658;9.068;2023-04-25T13:57:57;10.73;;;6.47;;
15595;SDS011;7898;48.658;9.068;2023-04-25T14:00:24;8.00;;;5.78;;
15595;SDS011;7898;48.658;9.068;2023-04-25T14:02:51;8.20;;;6.67;;
15595;SDS011;7898;48.658;9.068;2023-04-25T14:05:18;8.27;;;6.77;;
15595;SDS011;7898;48.658;9.068;2023-04-25T14:07:46;10.67;;;6.50;;
15595;SDS011;7898;48.658;9.068;2023-04-25T14:10:13;8.97;;;6.30;;
15595;SDS011;7898;48.658;9.068;2023-04-25T14:12:40;6.40;;;5.77;;
15595;SDS011;7898;48.658;9.068;2023-04-25T14:15:07;7.23;;;6.40;;
15595;SDS011;7898;48.658;9.068;2023-04-25T14:17:35;9.63;;;6.60;;
15595;SDS011;7898;48.658;9.068;2023-04-25T14:20:03;6.83;;;5.73;;
15595;SDS011;7898;48.658;9.068;2023-04-25T14:22:32;9.27;;;6.23;;
15595;SDS011;7898;48.658;9.068;2023-04-25T14:25:01;10.23;;;7.07;;
15595;SDS011;7898;48.658;9.068;2023-04-25T14:27:28;8.57;;;7.63;;
15595;SDS011;7898;48.658;9.068;2023-04-25T14:29:55;8.98;;;6.80;;
15595;SDS011;7898;48.658;9.068;2023-04-25T14:32:22;7.05;;;6.28;;
15595;SDS011;7898;48.658;9.068;2023-04-25T14:34:49;10.30;;;6.40;;
15595;SDS011;7898;48.658;9.068;2023-04-25T14:37:15;10.43;;;5.93;;
15595;SDS011;7898;48.658;9.068;2023-04-25T14:39:42;9.18;;;6.25;;
15595;SDS011;7898;48.658;9.068;2023-04-25T14:42:11;8.27;;;6.10;;
15595;SDS011;7898;48.658;9.068;2023-04-25T14:44:38;6.43;;;5.53;;
15595;SDS011;7898;48.658;9.068;2023-04-25T14:47:04;6.40;;;5.80;;
15595;SDS011;7898;48.658;9.068;2023-04-25T14:49:32;7.03;;;5.60;;
15595;SDS011;7898;48.658;9.068;2023-04-25T14:51:59;6.30;;;4.97;;
15595;SDS011;7898;48.658;9.068;2023-04-25T14:54:26;8.63;;;5.27;;
15595;SDS011;7898;48.658;9.068;2023-04-25T14:56:53;6.13;;;4.73;;
15595;SDS011;7898;48.658;9.068;2023-04-25T14:59:21;5.13;;;4.40;;
15595;SDS011;7898;48.658;9.068;2023-04-25T15:01:48;7.73;;;4.90;;
15595;SDS011;7898;48.658;9.068;2023-04-25T15:04:15;6.27;;;4.87;;
15595;SDS011;7898;48.658;9.068;2023-04-25T15:06:43;6.20;;;4.70;;